sensor_id;sensor_type;location;lat;lon;timestamp;temperature;humidity
33837;DHT22;20140;49.356;8.812;2023-07-31T00:02:15;16.80;99.90
33837;DHT22;20140;49.356;8.812;2023-07-31T00:04:41;16.80;99.90
33837;DHT22;20140;49.356;8.812;2023-07-31T00:07:06;16.70;99.90
33837;DHT22;20140;49.356;8.812;2023-07-31T00:09:33;16.70;99.90
33837;DHT22;20140;49.356;8.812;2023-07-31T00:11:58;16.70;99.90
33837;DHT22;20140;49.356;8.812;2023-07-31T00:14:24;16.70;99.90
33837;DHT22;20140;49.356;8.812;2023-07-31T00:16:49;16.70;99.90
33837;DHT22;20140;49.356;8.812;2023-07-31T00:19:15;16.80;99.90
33837;DHT22;20140;49.356;8.812;2023-07-31T00:21:40;16.80;99.90
33837;DHT22;20140;49.356;8.812;2023-07-31T00:24:08;16.80;99.90
33837;DHT22;20140;49.356;8.812;2023-07-31T00:26:34;16.80;99.90
33837;DHT22;20140;49.356;8.812;2023-07-31T00:28:59;16.90;99.90
33837;DHT22;20140;49.356;8.812;2023-07-31T00:31:25;17.00;99.90
33837;DHT22;20140;49.356;8.812;2023-07-31T00:33:53;17.00;99.90
33837;DHT22;20140;49.356;8.812;2023-07-31T00:36:18;17.10;99.90
33837;DHT22;20140;49.356;8.812;2023-07-31T00:38:44;17.10;99.90
33837;DHT22;20140;49.356;8.812;2023-07-31T00:41:09;17.20;99.90
33837;DHT22;20140;49.356;8.812;2023-07-31T00:43:35;17.30;99.90
33837;DHT22;20140;49.356;8.812;2023-07-31T00:46:00;17.40;99.90
33837;DHT22;20140;49.356;8.812;2023-07-31T00:48:26;17.30;99.90
33837;DHT22;20140;49.356;8.812;2023-07-31T00:50:52;17.30;99.90
33837;DHT22;20140;49.356;8.812;2023-07-31T00:53:17;17.30;99.90
33837;DHT22;20140;49.356;8.812;2023-07-31T00:55:44;17.30;99.90
33837;DHT22;20140;49.356;8.812;2023-07-31T00:58:09;17.30;99.90
33837;DHT22;20140;49.356;8.812;2023-07-31T01:00:35;17.30;99.90
33837;DHT22;20140;49.356;8.812;2023-07-31T01:03:01;17.20;99.90
33837;DHT22;20140;49.356;8.812;2023-07-31T01:05:37;17.40;99.90
33837;DHT22;20140;49.356;8.812;2023-07-31T01:08:15;17.50;99.90
33837;DHT22;20140;49.356;8.812;2023-07-31T01:10:52;17.40;99.90
33837;DHT22;20140;49.356;8.812;2023-07-31T01:13:21;17.50;99.90
33837;DHT22;20140;49.356;8.812;2023-07-31T01:15:47;17.50;99.90
33837;DHT22;20140;49.356;8.812;2023-07-31T01:18:12;17.50;99.90
33837;DHT22;20140;49.356;8.812;2023-07-31T01:20:41;17.60;99.90
33837;DHT22;20140;49.356;8.812;2023-07-31T01:26:05;17.70;99.90
33837;DHT22;20140;49.356;8.812;2023-07-31T01:28:46;17.60;99.90
33837;DHT22;20140;49.356;8.812;2023-07-31T01:31:20;17.80;99.90
33837;DHT22;20140;49.356;8.812;2023-07-31T01:33:46;17.70;99.90
33837;DHT22;20140;49.356;8.812;2023-07-31T01:36:12;17.70;99.90
33837;DHT22;20140;49.356;8.812;2023-07-31T01:38:38;17.60;99.90
33837;DHT22;20140;49.356;8.812;2023-07-31T01:41:03;17.60;99.90
33837;DHT22;20140;49.356;8.812;2023-07-31T01:43:29;17.60;99.90
33837;DHT22;20140;49.356;8.812;2023-07-31T01:45:56;17.60;99.90
33837;DHT22;20140;49.356;8.812;2023-07-31T01:48:22;17.60;99.90
33837;DHT22;20140;49.356;8.812;2023-07-31T01:50:47;17.60;99.90
33837;DHT22;20140;49.356;8.812;2023-07-31T01:53:13;17.60;99.90
33837;DHT22;20140;49.356;8.812;2023-07-31T01:55:38;17.70;99.90
33837;DHT22;20140;49.356;8.812;2023-07-31T01:58:04;17.70;99.90
33837;DHT22;20140;49.356;8.812;2023-07-31T02:00:29;17.60;99.90
33837;DHT22;20140;49.356;8.812;2023-07-31T02:02:55;17.60;99.90
33837;DHT22;20140;49.356;8.812;2023-07-31T02:05:20;17.60;99.90
33837;DHT22;20140;49.356;8.812;2023-07-31T02:07:46;17.60;99.90
33837;DHT22;20140;49.356;8.812;2023-07-31T02:10:11;17.70;99.90
33837;DHT22;20140;49.356;8.812;2023-07-31T02:12:37;17.70;99.90
33837;DHT22;20140;49.356;8.812;2023-07-31T02:15:03;17.60;99.90
33837;DHT22;20140;49.356;8.812;2023-07-31T02:17:29;17.60;99.90
33837;DHT22;20140;49.356;8.812;2023-07-31T02:19:55;17.60;99.90
33837;DHT22;20140;49.356;8.812;2023-07-31T02:22:20;17.50;99.90
33837;DHT22;20140;49.356;8.812;2023-07-31T02:24:46;17.60;99.90
33837;DHT22;20140;49.356;8.812;2023-07-31T02:27:11;17.60;99.90
33837;DHT22;20140;49.356;8.812;2023-07-31T02:29:37;17.50;99.90
33837;DHT22;20140;49.356;8.812;2023-07-31T02:32:03;17.50;99.90
33837;DHT22;20140;49.356;8.812;2023-07-31T02:34:28;17.50;99.90
33837;DHT22;20140;49.356;8.812;2023-07-31T02:36:54;17.50;99.90
33837;DHT22;20140;49.356;8.812;2023-07-31T02:39:19;17.40;99.90
33837;DHT22;20140;49.356;8.812;2023-07-31T02:41:45;17.40;99.90
33837;DHT22;20140;49.356;8.812;2023-07-31T02:44:10;17.50;99.90
33837;DHT22;20140;49.356;8.812;2023-07-31T02:46:38;17.40;99.90
33837;DHT22;20140;49.356;8.812;2023-07-31T02:49:04;17.30;99.90
33837;DHT22;20140;49.356;8.812;2023-07-31T02:51:29;17.30;99.90
33837;DHT22;20140;49.356;8.812;2023-07-31T02:53:55;17.30;99.90
33837;DHT22;20140;49.356;8.812;2023-07-31T02:56:20;17.30;99.90
33837;DHT22;20140;49.356;8.812;2023-07-31T02:58:46;17.30;99.90
33837;DHT22;20140;49.356;8.812;2023-07-31T03:01:14;17.30;99.90
33837;DHT22;20140;49.356;8.812;2023-07-31T03:03:41;17.20;99.90
33837;DHT22;20140;49.356;8.812;2023-07-31T03:06:06;17.30;99.90
33837;DHT22;20140;49.356;8.812;2023-07-31T03:08:32;17.30;99.90
33837;DHT22;20140;49.356;8.812;2023-07-31T03:11:00;17.30;99.90
33837;DHT22;20140;49.356;8.812;2023-07-31T03:13:25;17.30;99.90
33837;DHT22;20140;49.356;8.812;2023-07-31T03:15:51;17.40;99.90
33837;DHT22;20140;49.356;8.812;2023-07-31T03:18:16;17.20;99.90
33837;DHT22;20140;49.356;8.812;2023-07-31T03:20:43;17.20;99.90
33837;DHT22;20140;49.356;8.812;2023-07-31T03:23:09;17.20;99.90
33837;DHT22;20140;49.356;8.812;2023-07-31T03:25:35;17.10;99.90
33837;DHT22;20140;49.356;8.812;2023-07-31T03:28:00;17.00;99.90
33837;DHT22;20140;49.356;8.812;2023-07-31T03:30:26;17.00;99.90
33837;DHT22;20140;49.356;8.812;2023-07-31T03:32:52;17.00;99.90
33837;DHT22;20140;49.356;8.812;2023-07-31T03:35:17;17.00;99.90
33837;DHT22;20140;49.356;8.812;2023-07-31T03:37:43;16.90;99.90
33837;DHT22;20140;49.356;8.812;2023-07-31T03:40:09;16.90;99.90
33837;DHT22;20140;49.356;8.812;2023-07-31T03:42:35;16.90;99.90
33837;DHT22;20140;49.356;8.812;2023-07-31T03:45:00;16.80;99.90
33837;DHT22;20140;49.356;8.812;2023-07-31T03:47:26;16.80;99.90
33837;DHT22;20140;49.356;8.812;2023-07-31T03:49:51;16.80;99.90
33837;DHT22;20140;49.356;8.812;2023-07-31T03:52:17;16.80;99.90
33837;DHT22;20140;49.356;8.812;2023-07-31T03:54:42;16.70;99.90
33837;DHT22;20140;49.356;8.812;2023-07-31T03:57:10;16.70;99.90
33837;DHT22;20140;49.356;8.812;2023-07-31T03:59:36;16.70;99.90
33837;DHT22;20140;49.356;8.812;2023-07-31T04:02:03;16.70;99.90
33837;DHT22;20140;49.356;8.812;2023-07-31T04:04:29;16.60;99.90
33837;DHT22;20140;49.356;8.812;2023-07-31T04:06:54;16.60;99.90
33837;DHT22;20140;49.356;8.812;2023-07-31T04:09:20;16.70;99.90
33837;DHT22;20140;49.356;8.812;2023-07-31T04:11:45;16.80;99.90
33837;DHT22;20140;49.356;8.812;2023-07-31T04:14:11;16.80;99.90
33837;DHT22;20140;49.356;8.812;2023-07-31T04:16:36;16.80;99.90
33837;DHT22;20140;49.356;8.812;2023-07-31T04:19:03;16.80;99.90
33837;DHT22;20140;49.356;8.812;2023-07-31T04:21:29;16.90;99.90
33837;DHT22;20140;49.356;8.812;2023-07-31T04:23:54;16.90;99.90
33837;DHT22;20140;49.356;8.812;2023-07-31T04:26:23;16.90;99.90
33837;DHT22;20140;49.356;8.812;2023-07-31T04:28:49;16.90;99.90
33837;DHT22;20140;49.356;8.812;2023-07-31T04:31:14;16.90;99.90
33837;DHT22;20140;49.356;8.812;2023-07-31T04:33:40;16.90;99.90
33837;DHT22;20140;49.356;8.812;2023-07-31T04:36:05;16.90;99.90
33837;DHT22;20140;49.356;8.812;2023-07-31T04:38:31;16.90;99.90
33837;DHT22;20140;49.356;8.812;2023-07-31T04:40:56;16.90;99.90
33837;DHT22;20140;49.356;8.812;2023-07-31T04:43:22;16.90;99.90
33837;DHT22;20140;49.356;8.812;2023-07-31T04:45:47;16.80;99.90
33837;DHT22;20140;49.356;8.812;2023-07-31T04:48:13;16.90;99.90
33837;DHT22;20140;49.356;8.812;2023-07-31T04:50:39;16.90;99.90
33837;DHT22;20140;49.356;8.812;2023-07-31T04:53:05;16.90;99.90
33837;DHT22;20140;49.356;8.812;2023-07-31T04:55:30;16.80;99.90
33837;DHT22;20140;49.356;8.812;2023-07-31T04:57:57;16.90;99.90
33837;DHT22;20140;49.356;8.812;2023-07-31T05:00:22;16.90;99.90
33837;DHT22;20140;49.356;8.812;2023-07-31T05:02:48;16.90;99.90
33837;DHT22;20140;49.356;8.812;2023-07-31T05:05:13;17.00;99.90
33837;DHT22;20140;49.356;8.812;2023-07-31T05:07:39;17.10;99.90
33837;DHT22;20140;49.356;8.812;2023-07-31T05:10:05;17.20;99.90
33837;DHT22;20140;49.356;8.812;2023-07-31T05:12:30;17.10;99.90
33837;DHT22;20140;49.356;8.812;2023-07-31T05:14:56;17.20;99.90
33837;DHT22;20140;49.356;8.812;2023-07-31T05:17:21;17.10;99.90
33837;DHT22;20140;49.356;8.812;2023-07-31T05:19:47;17.30;99.90
33837;DHT22;20140;49.356;8.812;2023-07-31T05:22:12;17.30;99.90
33837;DHT22;20140;49.356;8.812;2023-07-31T05:24:38;17.30;99.90
33837;DHT22;20140;49.356;8.812;2023-07-31T05:27:04;17.20;99.90
33837;DHT22;20140;49.356;8.812;2023-07-31T05:29:29;17.20;99.90
33837;DHT22;20140;49.356;8.812;2023-07-31T05:31:55;17.20;99.90
33837;DHT22;20140;49.356;8.812;2023-07-31T05:34:20;17.20;99.90
33837;DHT22;20140;49.356;8.812;2023-07-31T05:36:46;17.30;99.90
33837;DHT22;20140;49.356;8.812;2023-07-31T05:39:11;17.30;99.90
33837;DHT22;20140;49.356;8.812;2023-07-31T05:41:37;17.30;99.90
33837;DHT22;20140;49.356;8.812;2023-07-31T05:44:03;17.30;99.90
33837;DHT22;20140;49.356;8.812;2023-07-31T05:46:28;17.30;99.90
33837;DHT22;20140;49.356;8.812;2023-07-31T05:48:54;17.30;99.90
33837;DHT22;20140;49.356;8.812;2023-07-31T05:51:19;17.30;99.90
33837;DHT22;20140;49.356;8.812;2023-07-31T05:53:45;17.40;99.90
33837;DHT22;20140;49.356;8.812;2023-07-31T05:56:10;17.40;99.90
33837;DHT22;20140;49.356;8.812;2023-07-31T05:58:36;17.40;99.90
33837;DHT22;20140;49.356;8.812;2023-07-31T06:01:04;17.40;99.90
33837;DHT22;20140;49.356;8.812;2023-07-31T06:03:29;17.50;99.90
33837;DHT22;20140;49.356;8.812;2023-07-31T06:05:56;17.50;99.90
33837;DHT22;20140;49.356;8.812;2023-07-31T06:08:21;17.50;99.90
33837;DHT22;20140;49.356;8.812;2023-07-31T06:10:47;17.40;99.90
33837;DHT22;20140;49.356;8.812;2023-07-31T06:13:12;17.50;99.90
33837;DHT22;20140;49.356;8.812;2023-07-31T06:15:38;17.50;99.90
33837;DHT22;20140;49.356;8.812;2023-07-31T06:18:03;17.50;99.90
33837;DHT22;20140;49.356;8.812;2023-07-31T06:20:30;17.50;99.90
33837;DHT22;20140;49.356;8.812;2023-07-31T06:22:55;17.50;99.90
33837;DHT22;20140;49.356;8.812;2023-07-31T06:25:21;17.40;99.90
33837;DHT22;20140;49.356;8.812;2023-07-31T06:27:46;17.40;99.90
33837;DHT22;20140;49.356;8.812;2023-07-31T06:30:12;17.50;99.90
33837;DHT22;20140;49.356;8.812;2023-07-31T06:32:37;17.60;99.90
33837;DHT22;20140;49.356;8.812;2023-07-31T06:35:03;17.60;99.90
33837;DHT22;20140;49.356;8.812;2023-07-31T06:37:29;17.60;99.90
33837;DHT22;20140;49.356;8.812;2023-07-31T06:39:54;17.60;99.90
33837;DHT22;20140;49.356;8.812;2023-07-31T06:42:20;17.70;99.90
33837;DHT22;20140;49.356;8.812;2023-07-31T06:44:46;17.70;99.90
33837;DHT22;20140;49.356;8.812;2023-07-31T06:47:11;17.80;99.90
33837;DHT22;20140;49.356;8.812;2023-07-31T06:49:37;17.70;99.90
33837;DHT22;20140;49.356;8.812;2023-07-31T06:52:03;17.80;99.90
33837;DHT22;20140;49.356;8.812;2023-07-31T06:54:28;17.90;99.90
33837;DHT22;20140;49.356;8.812;2023-07-31T06:56:54;17.80;99.90
33837;DHT22;20140;49.356;8.812;2023-07-31T06:59:19;17.70;99.90
33837;DHT22;20140;49.356;8.812;2023-07-31T07:01:45;17.80;99.90
33837;DHT22;20140;49.356;8.812;2023-07-31T07:04:10;17.90;99.90
33837;DHT22;20140;49.356;8.812;2023-07-31T07:06:36;17.90;99.90
33837;DHT22;20140;49.356;8.812;2023-07-31T07:09:02;17.90;99.90
33837;DHT22;20140;49.356;8.812;2023-07-31T07:11:28;17.90;99.90
33837;DHT22;20140;49.356;8.812;2023-07-31T07:13:56;18.00;99.90
33837;DHT22;20140;49.356;8.812;2023-07-31T07:16:21;18.00;99.90
33837;DHT22;20140;49.356;8.812;2023-07-31T07:18:47;18.00;99.90
33837;DHT22;20140;49.356;8.812;2023-07-31T07:21:12;18.20;99.90
33837;DHT22;20140;49.356;8.812;2023-07-31T07:23:43;18.30;99.90
33837;DHT22;20140;49.356;8.812;2023-07-31T07:26:09;18.40;99.90
33837;DHT22;20140;49.356;8.812;2023-07-31T07:28:34;18.60;99.90
33837;DHT22;20140;49.356;8.812;2023-07-31T07:31:02;18.70;99.90
33837;DHT22;20140;49.356;8.812;2023-07-31T07:33:28;18.70;99.90
33837;DHT22;20140;49.356;8.812;2023-07-31T07:35:54;18.70;99.90
33837;DHT22;20140;49.356;8.812;2023-07-31T07:38:19;18.60;99.90
33837;DHT22;20140;49.356;8.812;2023-07-31T07:40:45;18.60;99.90
33837;DHT22;20140;49.356;8.812;2023-07-31T07:43:12;18.60;99.90
33837;DHT22;20140;49.356;8.812;2023-07-31T07:45:37;18.70;99.90
33837;DHT22;20140;49.356;8.812;2023-07-31T07:48:03;18.90;99.90
33837;DHT22;20140;49.356;8.812;2023-07-31T07:50:29;19.00;99.90
33837;DHT22;20140;49.356;8.812;2023-07-31T07:52:54;19.00;99.90
33837;DHT22;20140;49.356;8.812;2023-07-31T07:55:20;19.10;99.90
33837;DHT22;20140;49.356;8.812;2023-07-31T07:57:45;19.00;99.90
33837;DHT22;20140;49.356;8.812;2023-07-31T08:00:12;19.00;99.90
33837;DHT22;20140;49.356;8.812;2023-07-31T08:02:38;19.10;99.90
33837;DHT22;20140;49.356;8.812;2023-07-31T08:05:04;19.10;99.90
33837;DHT22;20140;49.356;8.812;2023-07-31T08:07:29;19.10;99.90
33837;DHT22;20140;49.356;8.812;2023-07-31T08:09:55;19.30;99.90
33837;DHT22;20140;49.356;8.812;2023-07-31T08:12:20;19.30;99.90
33837;DHT22;20140;49.356;8.812;2023-07-31T08:14:46;19.30;99.90
33837;DHT22;20140;49.356;8.812;2023-07-31T08:17:11;19.30;99.90
33837;DHT22;20140;49.356;8.812;2023-07-31T08:19:39;19.40;99.90
33837;DHT22;20140;49.356;8.812;2023-07-31T08:22:04;19.50;99.90
33837;DHT22;20140;49.356;8.812;2023-07-31T08:24:30;19.40;99.90
33837;DHT22;20140;49.356;8.812;2023-07-31T08:26:55;19.50;99.90
33837;DHT22;20140;49.356;8.812;2023-07-31T08:29:21;19.50;99.90
33837;DHT22;20140;49.356;8.812;2023-07-31T08:31:46;19.60;99.90
33837;DHT22;20140;49.356;8.812;2023-07-31T08:34:12;19.60;99.90
33837;DHT22;20140;49.356;8.812;2023-07-31T08:36:37;19.70;99.90
33837;DHT22;20140;49.356;8.812;2023-07-31T08:39:05;19.70;99.90
33837;DHT22;20140;49.356;8.812;2023-07-31T08:41:31;19.60;99.90
33837;DHT22;20140;49.356;8.812;2023-07-31T08:43:57;19.70;99.90
33837;DHT22;20140;49.356;8.812;2023-07-31T08:46:24;19.60;99.90
33837;DHT22;20140;49.356;8.812;2023-07-31T08:48:50;19.80;99.90
33837;DHT22;20140;49.356;8.812;2023-07-31T08:51:17;20.10;99.90
33837;DHT22;20140;49.356;8.812;2023-07-31T08:53:42;20.10;99.90
33837;DHT22;20140;49.356;8.812;2023-07-31T08:56:10;20.10;99.90
33837;DHT22;20140;49.356;8.812;2023-07-31T08:58:37;20.10;99.90
33837;DHT22;20140;49.356;8.812;2023-07-31T09:01:04;20.20;99.90
33837;DHT22;20140;49.356;8.812;2023-07-31T09:03:35;20.30;99.90
33837;DHT22;20140;49.356;8.812;2023-07-31T09:06:02;20.30;99.90
33837;DHT22;20140;49.356;8.812;2023-07-31T09:08:31;20.30;99.90
33837;DHT22;20140;49.356;8.812;2023-07-31T09:11:00;20.30;99.90
33837;DHT22;20140;49.356;8.812;2023-07-31T09:13:29;20.40;99.90
33837;DHT22;20140;49.356;8.812;2023-07-31T09:15:54;20.40;99.90
33837;DHT22;20140;49.356;8.812;2023-07-31T09:18:20;20.40;99.90
33837;DHT22;20140;49.356;8.812;2023-07-31T09:21:04;20.20;99.90
33837;DHT22;20140;49.356;8.812;2023-07-31T09:23:43;20.20;99.90
33837;DHT22;20140;49.356;8.812;2023-07-31T09:26:09;20.20;99.90
33837;DHT22;20140;49.356;8.812;2023-07-31T09:28:35;20.30;99.90
33837;DHT22;20140;49.356;8.812;2023-07-31T09:31:00;20.20;99.90
33837;DHT22;20140;49.356;8.812;2023-07-31T09:33:26;20.40;99.90
33837;DHT22;20140;49.356;8.812;2023-07-31T09:35:51;20.40;99.90
33837;DHT22;20140;49.356;8.812;2023-07-31T09:38:17;20.30;99.90
33837;DHT22;20140;49.356;8.812;2023-07-31T09:40:45;20.40;99.90
33837;DHT22;20140;49.356;8.812;2023-07-31T09:43:12;20.50;99.90
33837;DHT22;20140;49.356;8.812;2023-07-31T09:45:40;20.60;99.90
33837;DHT22;20140;49.356;8.812;2023-07-31T09:48:10;20.70;99.90
33837;DHT22;20140;49.356;8.812;2023-07-31T09:50:38;20.90;99.90
33837;DHT22;20140;49.356;8.812;2023-07-31T09:53:05;21.00;99.90
33837;DHT22;20140;49.356;8.812;2023-07-31T09:55:31;21.30;99.90
33837;DHT22;20140;49.356;8.812;2023-07-31T09:58:04;21.50;99.90
33837;DHT22;20140;49.356;8.812;2023-07-31T10:00:30;21.50;99.90
33837;DHT22;20140;49.356;8.812;2023-07-31T10:02:59;21.60;99.90
33837;DHT22;20140;49.356;8.812;2023-07-31T10:05:31;21.60;99.90
33837;DHT22;20140;49.356;8.812;2023-07-31T10:07:59;21.90;99.90
33837;DHT22;20140;49.356;8.812;2023-07-31T10:10:25;21.70;99.90
33837;DHT22;20140;49.356;8.812;2023-07-31T10:12:52;21.60;99.90
33837;DHT22;20140;49.356;8.812;2023-07-31T10:15:19;21.40;99.90
33837;DHT22;20140;49.356;8.812;2023-07-31T10:17:47;21.60;99.90
33837;DHT22;20140;49.356;8.812;2023-07-31T10:20:14;21.70;99.90
33837;DHT22;20140;49.356;8.812;2023-07-31T10:22:42;21.70;99.90
33837;DHT22;20140;49.356;8.812;2023-07-31T10:25:09;21.60;99.90
33837;DHT22;20140;49.356;8.812;2023-07-31T10:27:35;21.50;99.90
33837;DHT22;20140;49.356;8.812;2023-07-31T10:30:03;21.40;99.90
33837;DHT22;20140;49.356;8.812;2023-07-31T10:32:30;21.40;99.90
33837;DHT22;20140;49.356;8.812;2023-07-31T10:34:56;21.50;99.90
33837;DHT22;20140;49.356;8.812;2023-07-31T10:37:29;21.40;99.90
33837;DHT22;20140;49.356;8.812;2023-07-31T10:40:12;21.40;99.90
33837;DHT22;20140;49.356;8.812;2023-07-31T10:45:10;21.50;99.90
33837;DHT22;20140;49.356;8.812;2023-07-31T10:47:43;21.70;99.90
33837;DHT22;20140;49.356;8.812;2023-07-31T10:52:50;21.90;99.90
33837;DHT22;20140;49.356;8.812;2023-07-31T10:57:49;22.10;99.90
33837;DHT22;20140;49.356;8.812;2023-07-31T11:00:28;22.20;99.90
33837;DHT22;20140;49.356;8.812;2023-07-31T11:03:05;22.10;99.90
33837;DHT22;20140;49.356;8.812;2023-07-31T11:05:43;22.10;99.90
33837;DHT22;20140;49.356;8.812;2023-07-31T11:08:25;22.00;99.90
33837;DHT22;20140;49.356;8.812;2023-07-31T11:11:06;22.00;99.90
33837;DHT22;20140;49.356;8.812;2023-07-31T11:13:33;22.00;99.90
33837;DHT22;20140;49.356;8.812;2023-07-31T11:16:00;21.90;99.90
33837;DHT22;20140;49.356;8.812;2023-07-31T11:18:26;21.70;99.90
33837;DHT22;20140;49.356;8.812;2023-07-31T11:20:53;21.60;99.90
33837;DHT22;20140;49.356;8.812;2023-07-31T11:23:19;21.70;99.90
33837;DHT22;20140;49.356;8.812;2023-07-31T11:25:45;21.80;99.90
33837;DHT22;20140;49.356;8.812;2023-07-31T11:28:13;21.70;99.90
33837;DHT22;20140;49.356;8.812;2023-07-31T11:30:39;21.80;99.90
33837;DHT22;20140;49.356;8.812;2023-07-31T11:33:07;21.80;99.90
33837;DHT22;20140;49.356;8.812;2023-07-31T11:35:34;21.90;99.90
33837;DHT22;20140;49.356;8.812;2023-07-31T11:38:03;22.10;99.90
33837;DHT22;20140;49.356;8.812;2023-07-31T11:40:29;22.20;99.90
33837;DHT22;20140;49.356;8.812;2023-07-31T11:42:58;22.30;99.90
33837;DHT22;20140;49.356;8.812;2023-07-31T11:45:27;22.30;99.90
33837;DHT22;20140;49.356;8.812;2023-07-31T11:47:56;22.40;99.90
33837;DHT22;20140;49.356;8.812;2023-07-31T11:50:23;22.60;99.90
33837;DHT22;20140;49.356;8.812;2023-07-31T11:52:59;22.50;99.90
33837;DHT22;20140;49.356;8.812;2023-07-31T11:55:26;22.40;99.90
33837;DHT22;20140;49.356;8.812;2023-07-31T11:57:53;22.50;99.90
33837;DHT22;20140;49.356;8.812;2023-07-31T12:00:19;22.40;99.90
33837;DHT22;20140;49.356;8.812;2023-07-31T12:02:45;22.20;99.90
33837;DHT22;20140;49.356;8.812;2023-07-31T12:05:12;22.20;99.90
33837;DHT22;20140;49.356;8.812;2023-07-31T12:07:54;22.40;99.90
33837;DHT22;20140;49.356;8.812;2023-07-31T12:10:30;22.40;99.90
33837;DHT22;20140;49.356;8.812;2023-07-31T12:13:02;22.40;99.90
33837;DHT22;20140;49.356;8.812;2023-07-31T12:15:38;22.50;99.90
33837;DHT22;20140;49.356;8.812;2023-07-31T12:18:06;22.40;99.90
33837;DHT22;20140;49.356;8.812;2023-07-31T12:20:32;22.30;99.90
33837;DHT22;20140;49.356;8.812;2023-07-31T12:22:59;22.40;99.90
33837;DHT22;20140;49.356;8.812;2023-07-31T12:25:32;22.40;99.90
33837;DHT22;20140;49.356;8.812;2023-07-31T12:28:03;22.40;99.90
33837;DHT22;20140;49.356;8.812;2023-07-31T12:30:39;22.40;99.90
33837;DHT22;20140;49.356;8.812;2023-07-31T12:33:15;22.40;99.90
33837;DHT22;20140;49.356;8.812;2023-07-31T12:35:43;22.40;99.90
33837;DHT22;20140;49.356;8.812;2023-07-31T12:38:09;22.60;99.90
33837;DHT22;20140;49.356;8.812;2023-07-31T12:40:40;23.00;99.90
33837;DHT22;20140;49.356;8.812;2023-07-31T12:43:07;23.20;99.90
33837;DHT22;20140;49.356;8.812;2023-07-31T12:45:33;23.30;99.90
33837;DHT22;20140;49.356;8.812;2023-07-31T12:48:00;23.50;99.90
33837;DHT22;20140;49.356;8.812;2023-07-31T12:50:25;23.70;99.90
33837;DHT22;20140;49.356;8.812;2023-07-31T12:52:54;24.20;99.90
33837;DHT22;20140;49.356;8.812;2023-07-31T12:55:21;24.50;99.90
33837;DHT22;20140;49.356;8.812;2023-07-31T12:57:47;24.50;99.90
33837;DHT22;20140;49.356;8.812;2023-07-31T13:00:13;24.20;99.90
33837;DHT22;20140;49.356;8.812;2023-07-31T13:12:29;22.90;99.90
33837;DHT22;20140;49.356;8.812;2023-07-31T13:14:54;22.70;99.90
33837;DHT22;20140;49.356;8.812;2023-07-31T13:17:20;22.80;99.90
33837;DHT22;20140;49.356;8.812;2023-07-31T13:19:45;22.80;99.90
33837;DHT22;20140;49.356;8.812;2023-07-31T13:22:11;22.70;99.90
33837;DHT22;20140;49.356;8.812;2023-07-31T13:24:36;22.80;99.90
33837;DHT22;20140;49.356;8.812;2023-07-31T13:27:02;22.90;99.90
33837;DHT22;20140;49.356;8.812;2023-07-31T13:29:28;23.00;99.90
33837;DHT22;20140;49.356;8.812;2023-07-31T13:31:55;22.90;99.90
33837;DHT22;20140;49.356;8.812;2023-07-31T13:34:20;22.90;99.90
33837;DHT22;20140;49.356;8.812;2023-07-31T13:36:46;22.80;99.90
33837;DHT22;20140;49.356;8.812;2023-07-31T13:39:11;22.70;99.90
33837;DHT22;20140;49.356;8.812;2023-07-31T13:41:37;22.70;99.90
33837;DHT22;20140;49.356;8.812;2023-07-31T13:44:03;22.70;99.90
33837;DHT22;20140;49.356;8.812;2023-07-31T13:46:28;22.70;99.90
33837;DHT22;20140;49.356;8.812;2023-07-31T13:48:54;22.80;99.90
33837;DHT22;20140;49.356;8.812;2023-07-31T13:51:21;23.00;99.90
33837;DHT22;20140;49.356;8.812;2023-07-31T13:53:47;23.10;99.90
33837;DHT22;20140;49.356;8.812;2023-07-31T13:56:12;23.30;99.90
33837;DHT22;20140;49.356;8.812;2023-07-31T13:58:38;23.40;99.90
33837;DHT22;20140;49.356;8.812;2023-07-31T14:01:04;23.30;99.90
33837;DHT22;20140;49.356;8.812;2023-07-31T14:03:30;23.30;99.90
33837;DHT22;20140;49.356;8.812;2023-07-31T14:05:55;23.50;99.90
33837;DHT22;20140;49.356;8.812;2023-07-31T14:08:21;23.60;99.90
33837;DHT22;20140;49.356;8.812;2023-07-31T14:10:47;23.40;99.90
33837;DHT22;20140;49.356;8.812;2023-07-31T14:13:12;23.10;99.90
33837;DHT22;20140;49.356;8.812;2023-07-31T14:15:38;22.80;99.90
33837;DHT22;20140;49.356;8.812;2023-07-31T14:18:04;22.50;99.90
33837;DHT22;20140;49.356;8.812;2023-07-31T14:20:30;22.40;99.90
33837;DHT22;20140;49.356;8.812;2023-07-31T14:22:55;22.40;99.90
33837;DHT22;20140;49.356;8.812;2023-07-31T14:25:21;22.40;99.90
33837;DHT22;20140;49.356;8.812;2023-07-31T14:27:46;22.40;99.90
33837;DHT22;20140;49.356;8.812;2023-07-31T14:30:12;22.20;99.90
33837;DHT22;20140;49.356;8.812;2023-07-31T14:32:37;22.30;99.90
33837;DHT22;20140;49.356;8.812;2023-07-31T14:35:03;22.20;99.90
33837;DHT22;20140;49.356;8.812;2023-07-31T14:37:40;22.30;99.90
33837;DHT22;20140;49.356;8.812;2023-07-31T14:40:07;22.50;99.90
33837;DHT22;20140;49.356;8.812;2023-07-31T14:42:33;22.60;99.90
33837;DHT22;20140;49.356;8.812;2023-07-31T14:44:59;22.50;99.90
33837;DHT22;20140;49.356;8.812;2023-07-31T14:47:24;22.50;99.90
33837;DHT22;20140;49.356;8.812;2023-07-31T14:49:50;22.50;99.90
33837;DHT22;20140;49.356;8.812;2023-07-31T14:52:15;22.50;99.90
33837;DHT22;20140;49.356;8.812;2023-07-31T14:54:41;22.50;99.90
33837;DHT22;20140;49.356;8.812;2023-07-31T14:57:06;22.40;99.90
33837;DHT22;20140;49.356;8.812;2023-07-31T14:59:32;22.40;99.90
33837;DHT22;20140;49.356;8.812;2023-07-31T15:01:57;22.40;99.90
33837;DHT22;20140;49.356;8.812;2023-07-31T15:04:23;22.30;99.90
33837;DHT22;20140;49.356;8.812;2023-07-31T15:06:49;22.30;99.90
33837;DHT22;20140;49.356;8.812;2023-07-31T15:09:15;22.30;99.90
33837;DHT22;20140;49.356;8.812;2023-07-31T15:11:40;22.40;99.90
33837;DHT22;20140;49.356;8.812;2023-07-31T15:14:06;22.80;99.90
33837;DHT22;20140;49.356;8.812;2023-07-31T15:16:32;23.60;99.90
33837;DHT22;20140;49.356;8.812;2023-07-31T15:18:57;23.90;99.90
33837;DHT22;20140;49.356;8.812;2023-07-31T15:21:23;23.90;99.90
33837;DHT22;20140;49.356;8.812;2023-07-31T15:23:48;24.20;99.90
33837;DHT22;20140;49.356;8.812;2023-07-31T15:26:14;24.50;99.90
33837;DHT22;20140;49.356;8.812;2023-07-31T15:28:39;24.60;99.90
33837;DHT22;20140;49.356;8.812;2023-07-31T15:31:05;24.80;99.90
33837;DHT22;20140;49.356;8.812;2023-07-31T15:33:31;24.60;99.90
33837;DHT22;20140;49.356;8.812;2023-07-31T15:35:56;24.20;99.90
33837;DHT22;20140;49.356;8.812;2023-07-31T15:38:23;24.20;99.90
33837;DHT22;20140;49.356;8.812;2023-07-31T15:40:48;24.20;99.90
33837;DHT22;20140;49.356;8.812;2023-07-31T15:43:15;23.80;99.90
33837;DHT22;20140;49.356;8.812;2023-07-31T15:45:41;24.00;99.90
33837;DHT22;20140;49.356;8.812;2023-07-31T15:48:06;23.80;99.90